createdAt,value
2023-01-28T00:00:45.360Z,20.71
2023-01-28T00:01:45.383Z,20.80
2023-01-28T00:02:45.408Z,20.84
2023-01-28T00:03:45.482Z,20.77
2023-01-28T00:04:45.415Z,20.74
2023-01-28T00:05:45.423Z,20.69
2023-01-28T00:06:45.428Z,20.71
2023-01-28T00:07:45.438Z,20.78
2023-01-28T00:08:45.443Z,20.86
2023-01-28T00:09:45.460Z,20.77
2023-01-28T00:10:45.475Z,20.71
2023-01-28T00:11:45.484Z,20.74
2023-01-28T00:12:45.481Z,20.77
2023-01-28T00:13:45.498Z,20.77
2023-01-28T00:14:45.515Z,20.81
2023-01-28T00:15:45.518Z,20.71
2023-01-28T00:16:45.539Z,20.71
2023-01-28T00:17:45.540Z,20.71
2023-01-28T00:18:45.561Z,20.74
2023-01-28T00:19:45.574Z,20.81
2023-01-28T00:20:45.578Z,20.71
2023-01-28T00:21:45.589Z,20.65
2023-01-28T00:22:45.602Z,20.66
2023-01-28T00:23:45.618Z,20.77
2023-01-28T00:24:45.624Z,20.78
2023-01-28T00:25:45.647Z,20.86
2023-01-28T00:26:45.638Z,20.65
2023-01-28T00:27:45.661Z,20.62
2023-01-28T00:28:45.673Z,20.72
2023-01-28T00:29:45.671Z,20.77
2023-01-28T00:30:45.689Z,20.78
2023-01-28T00:31:45.728Z,20.68
2023-01-28T00:32:45.687Z,20.62
2023-01-28T00:33:45.693Z,20.64
2023-01-28T00:34:45.714Z,20.74
2023-01-28T00:35:45.719Z,20.81
2023-01-28T00:36:45.722Z,20.84
2023-01-28T00:37:45.742Z,20.71
2023-01-28T00:38:45.744Z,20.66
2023-01-28T00:39:45.752Z,20.65
2023-01-28T00:40:45.824Z,20.81
2023-01-28T00:41:45.771Z,20.80
2023-01-28T00:42:45.784Z,20.71
2023-01-28T00:43:45.809Z,20.63
2023-01-28T00:44:45.803Z,20.69
2023-01-28T00:45:47.458Z,20.80
2023-01-28T00:46:45.812Z,20.80
2023-01-28T00:47:45.817Z,20.88
2023-01-28T00:48:45.836Z,20.68
2023-01-28T00:49:45.846Z,20.66
2023-01-28T00:50:45.861Z,20.68
2023-01-28T00:51:45.847Z,20.78
2023-01-28T00:52:45.848Z,20.83
2023-01-28T00:53:45.897Z,20.72
2023-01-28T00:54:45.856Z,20.62
2023-01-28T00:55:45.872Z,20.72
2023-01-28T00:56:45.860Z,20.71
2023-01-28T00:57:45.876Z,20.80
2023-01-28T00:58:45.881Z,20.81
2023-01-28T00:59:45.882Z,20.60
2023-01-28T01:00:45.890Z,20.69
2023-01-28T01:01:45.970Z,20.82
2023-01-28T01:02:45.934Z,20.77
2023-01-28T01:03:45.912Z,20.83
2023-01-28T01:04:45.910Z,20.72
2023-01-28T01:05:45.920Z,20.65
2023-01-28T01:06:45.917Z,20.66
2023-01-28T01:07:45.935Z,20.71
2023-01-28T01:08:45.939Z,20.77
2023-01-28T01:09:45.941Z,20.75
2023-01-28T01:10:45.973Z,20.62
2023-01-28T01:11:45.964Z,20.71
2023-01-28T01:12:45.980Z,20.78
2023-01-28T01:13:45.980Z,20.77
2023-01-28T01:14:45.989Z,20.83
2023-01-28T01:15:46.019Z,20.68
2023-01-28T01:16:45.996Z,20.65
2023-01-28T01:17:45.997Z,20.69
2023-01-28T01:18:46.007Z,20.77
2023-01-28T01:19:46.032Z,20.80
2023-01-28T01:20:46.060Z,20.82
2023-01-28T01:21:46.025Z,20.63
2023-01-28T01:22:46.037Z,20.69
2023-01-28T01:23:46.041Z,20.63
2023-01-28T01:24:46.060Z,20.79
2023-01-28T01:25:46.052Z,20.81
2023-01-28T01:26:46.050Z,20.71
2023-01-28T01:27:46.081Z,20.59
2023-01-28T01:28:46.064Z,20.66
2023-01-28T01:29:46.066Z,20.77
2023-01-28T01:30:46.124Z,20.74
2023-01-28T01:31:46.124Z,20.77
2023-01-28T01:32:46.109Z,20.63
2023-01-28T01:33:46.128Z,20.63
2023-01-28T01:34:46.117Z,20.68
2023-01-28T01:35:46.151Z,20.75
2023-01-28T01:36:46.135Z,20.72
2023-01-28T01:37:46.156Z,20.68
2023-01-28T01:38:46.157Z,20.62
2023-01-28T01:39:46.161Z,20.63
2023-01-28T01:40:46.167Z,20.72
2023-01-28T01:41:46.177Z,20.78
2023-01-28T01:42:46.196Z,20.79
2023-01-28T01:43:46.192Z,20.60
2023-01-28T01:44:46.210Z,20.63
2023-01-28T01:45:46.224Z,20.68
2023-01-28T01:46:46.235Z,20.75
2023-01-28T01:47:46.235Z,20.81
2023-01-28T01:48:46.248Z,20.66
2023-01-28T01:49:46.273Z,20.56
2023-01-28T01:50:46.280Z,20.69
2023-01-28T01:51:46.285Z,20.74
2023-01-28T01:52:46.291Z,20.72
2023-01-28T01:53:46.289Z,20.77
2023-01-28T01:54:46.318Z,20.63
2023-01-28T01:55:46.329Z,20.57
2023-01-28T01:56:46.317Z,20.62
2023-01-28T01:57:46.320Z,20.78
2023-01-28T01:58:46.333Z,20.75
2023-01-28T01:59:46.351Z,20.72
2023-01-28T02:00:46.361Z,20.56
2023-01-28T02:01:46.374Z,20.62
2023-01-28T02:02:46.409Z,20.72
2023-01-28T02:03:46.452Z,20.69
2023-01-28T02:04:46.412Z,20.82
2023-01-28T02:05:46.434Z,20.70
2023-01-28T02:06:46.442Z,20.62
2023-01-28T02:07:46.437Z,20.65
2023-01-28T02:08:46.450Z,20.72
2023-01-28T02:09:46.469Z,20.75
2023-01-28T02:10:46.476Z,20.84
2023-01-28T02:11:46.491Z,20.71
2023-01-28T02:12:46.491Z,20.59
2023-01-28T02:13:46.502Z,20.68
2023-01-28T02:14:46.517Z,20.74
2023-01-28T02:15:46.513Z,20.74
2023-01-28T02:16:46.618Z,20.60
2023-01-28T02:17:46.536Z,20.57
2023-01-28T02:18:46.566Z,20.53
2023-01-28T02:19:46.556Z,20.65
2023-01-28T02:20:46.575Z,20.72
2023-01-28T02:21:46.596Z,20.74
2023-01-28T04:54:48.064Z,20.44
2023-01-28T04:55:48.068Z,20.50
2023-01-28T04:56:48.097Z,20.53
2023-01-28T04:57:48.096Z,20.57
2023-01-28T04:58:48.106Z,20.63
2023-01-28T04:59:48.128Z,20.57
2023-01-28T05:00:48.161Z,20.44
2023-01-28T05:01:48.191Z,20.47
2023-01-28T05:02:48.168Z,20.60
2023-01-28T05:03:48.184Z,20.61
2023-01-28T05:04:48.193Z,20.60
2023-01-28T05:05:48.219Z,20.48
2023-01-28T05:06:48.220Z,20.47
2023-01-28T05:07:48.232Z,20.51
2023-01-28T05:08:48.263Z,20.56
2023-01-28T05:09:48.274Z,20.59
2023-01-28T05:10:48.280Z,20.60
2023-01-28T05:11:48.284Z,20.45
2023-01-28T05:12:48.311Z,20.41
2023-01-28T05:13:48.307Z,20.51
2023-01-28T05:14:48.340Z,20.60
2023-01-28T05:15:48.331Z,20.60
2023-01-28T05:16:48.350Z,20.50
2023-01-28T05:17:48.356Z,20.41
2023-01-28T05:18:48.373Z,20.38
2023-01-28T05:19:48.383Z,20.53
2023-01-28T05:20:48.401Z,20.56
2023-01-28T05:21:48.437Z,20.63
2023-01-28T05:22:48.413Z,20.56
2023-01-28T05:23:48.425Z,20.43
2023-01-28T05:24:48.446Z,20.48
2023-01-28T05:25:48.455Z,20.54
2023-01-28T05:26:48.471Z,20.54
2023-01-28T05:27:48.485Z,20.59
2023-01-28T05:28:48.493Z,20.49
2023-01-28T05:29:48.503Z,20.41
2023-01-28T05:30:48.608Z,20.50
2023-01-28T05:31:48.517Z,20.50
2023-01-28T05:32:48.599Z,20.63
2023-01-28T05:33:48.535Z,20.53
2023-01-28T05:34:48.549Z,20.39
2023-01-28T05:35:48.567Z,20.43
2023-01-28T05:36:48.578Z,20.51
2023-01-28T05:37:48.610Z,20.61
2023-01-28T05:38:48.622Z,20.66
2023-01-28T05:39:48.630Z,20.45
2023-01-28T05:40:48.617Z,20.44
2023-01-28T05:41:48.635Z,20.51
2023-01-28T05:42:48.638Z,20.53
2023-01-28T05:43:48.659Z,20.59
2023-01-28T05:44:48.665Z,20.53
2023-01-28T05:45:48.719Z,20.47
2023-01-28T05:46:48.689Z,20.45
2023-01-28T05:47:48.706Z,20.44
2023-01-28T05:48:48.705Z,20.50
2023-01-28T05:49:48.725Z,20.58
2023-01-28T05:50:48.729Z,20.41
2023-01-28T05:51:48.763Z,20.39
2023-01-28T05:52:48.776Z,20.39
2023-01-28T05:53:48.756Z,20.47
2023-01-28T05:54:48.774Z,20.51
2023-01-28T05:55:48.777Z,20.51
2023-01-28T05:56:48.784Z,20.35
2023-01-28T05:57:48.793Z,20.32
2023-01-28T05:58:48.815Z,20.41
2023-01-28T05:59:48.810Z,20.50
2023-01-28T06:00:48.815Z,20.54
2023-01-28T06:01:48.870Z,20.51
2023-01-28T06:02:48.821Z,20.35
2023-01-28T06:03:48.828Z,20.42
2023-01-28T06:04:48.843Z,20.42
2023-01-28T06:05:48.856Z,20.50
2023-01-28T06:06:48.857Z,20.60
2023-01-28T06:07:48.891Z,20.45
2023-01-28T06:08:48.868Z,20.36
2023-01-28T06:09:48.879Z,20.42
2023-01-28T06:10:48.897Z,20.45
2023-01-28T06:11:48.908Z,20.48
2023-01-28T06:12:48.900Z,20.51
2023-01-28T06:13:48.910Z,20.39
2023-01-28T06:14:48.928Z,20.35
2023-01-28T06:15:48.967Z,20.39
2023-01-28T06:16:48.949Z,20.47
2023-01-28T06:17:48.959Z,20.54
2023-01-28T06:18:48.964Z,20.44
2023-01-28T06:19:48.985Z,20.39
2023-01-28T06:20:48.998Z,20.42
2023-01-28T06:21:49.015Z,20.48
2023-01-28T06:22:49.020Z,20.53
2023-01-28T06:23:49.042Z,20.54
2023-01-28T06:24:49.047Z,20.43
2023-01-28T06:25:49.064Z,20.44
2023-01-28T06:26:49.076Z,20.38
2023-01-28T06:27:49.085Z,20.42
2023-01-28T06:28:49.099Z,20.48
2023-01-28T06:29:49.114Z,20.48
2023-01-28T06:30:49.152Z,20.35
2023-01-28T06:31:49.179Z,20.39
2023-01-28T06:32:49.160Z,20.41
2023-01-28T06:33:49.163Z,20.48
2023-01-28T06:34:49.195Z,20.57
2023-01-28T06:35:49.203Z,20.42
2023-01-28T06:36:49.196Z,20.30
2023-01-28T06:37:49.206Z,20.35
2023-01-28T06:38:49.230Z,20.39
2023-01-28T06:39:49.234Z,20.47
2023-01-28T06:40:49.250Z,20.50
2023-01-28T06:41:49.263Z,20.38
2023-01-28T06:42:49.273Z,20.27
2023-01-28T06:43:49.287Z,20.33
2023-01-28T06:44:49.306Z,20.39
2023-01-28T06:45:49.354Z,20.48
2023-01-28T06:46:49.313Z,20.49
2023-01-28T06:47:49.330Z,20.36
2023-01-28T06:48:49.351Z,20.29
2023-01-28T06:49:49.355Z,20.35
2023-01-28T06:50:49.377Z,20.45
2023-01-28T06:51:49.394Z,20.50
2023-01-28T06:52:49.399Z,20.45
2023-01-28T06:53:49.430Z,20.30
2023-01-28T06:54:49.429Z,20.32
2023-01-28T06:55:49.440Z,20.36
2023-01-28T06:56:49.442Z,20.47
2023-01-28T06:57:49.457Z,20.50
2023-01-28T06:58:49.508Z,20.33
2023-01-28T06:59:49.485Z,20.24
2023-01-28T07:00:49.485Z,20.32
2023-01-28T07:01:49.587Z,20.41
2023-01-28T07:02:49.532Z,20.47
2023-01-28T07:03:49.507Z,20.45
2023-01-28T07:04:49.518Z,20.32
2023-01-28T07:05:49.538Z,20.34
2023-01-28T07:06:49.549Z,20.36
2023-01-28T07:07:49.562Z,20.47
2023-01-28T07:08:49.570Z,20.45
2023-01-28T07:09:49.587Z,20.36
2023-01-28T07:10:49.604Z,20.29
2023-01-28T07:11:49.617Z,20.29
2023-01-28T07:12:49.631Z,20.35
2023-01-28T07:13:49.666Z,20.39
2023-01-28T07:14:49.663Z,20.47
2023-01-28T07:15:49.665Z,20.33
2023-01-28T07:16:49.714Z,20.29
2023-01-28T07:17:49.697Z,20.35
2023-01-28T07:18:49.713Z,20.36
2023-01-28T07:19:49.723Z,20.43
2023-01-28T07:20:49.738Z,20.44
2023-01-28T07:21:49.749Z,20.27
2023-01-28T07:22:49.755Z,20.33
2023-01-28T07:23:49.756Z,20.34
2023-01-28T07:24:49.771Z,20.36
2023-01-28T07:25:49.783Z,20.45
2023-01-28T07:26:49.815Z,20.39
2023-01-28T07:27:49.817Z,20.23
2023-01-28T07:28:49.830Z,20.31
2023-01-28T07:29:49.841Z,20.35
2023-01-28T07:30:51.876Z,20.39
2023-01-28T07:31:49.901Z,20.44
2023-01-28T07:32:49.875Z,20.29
2023-01-28T07:33:49.877Z,20.23
2023-01-28T07:34:49.882Z,20.32
2023-01-28T07:35:49.898Z,20.37
2023-01-28T09:15:50.273Z,20.19
2023-01-28T09:16:50.261Z,20.22
2023-01-28T09:17:50.277Z,20.34
2023-01-28T09:18:50.303Z,20.37
2023-01-28T09:19:50.312Z,20.15
2023-01-28T09:20:50.317Z,20.13
2023-01-28T09:21:50.346Z,20.21
2023-01-28T09:22:50.342Z,20.27
2023-01-28T09:23:50.362Z,20.33
2023-01-28T11:37:51.294Z,19.80
2023-01-28T11:38:51.285Z,19.79
2023-01-28T11:39:51.284Z,19.77
2023-01-28T11:40:51.315Z,19.83
2023-01-28T11:41:51.280Z,19.93
2023-01-28T11:42:51.325Z,19.89
2023-01-28T11:43:51.275Z,19.76
2023-01-28T11:45:51.330Z,19.86
2023-01-28T11:46:51.299Z,19.92
2023-01-28T11:47:51.295Z,19.89
2023-01-28T11:48:51.305Z,19.77
2023-01-28T11:49:51.301Z,19.68
2023-01-28T11:50:51.315Z,19.71
2023-01-28T11:51:51.311Z,19.80
2023-01-28T11:53:07.775Z,19.86
2023-01-28T11:53:52.324Z,19.80
2023-01-28T11:54:51.332Z,19.76
2023-01-28T11:55:51.335Z,19.83
2023-01-28T11:56:51.335Z,19.79
2023-01-28T11:57:51.334Z,19.85
2023-01-28T11:58:51.362Z,19.89
2023-01-28T11:59:51.346Z,19.77
2023-01-28T12:00:51.363Z,19.73
2023-01-28T12:01:51.354Z,19.71
2023-01-28T12:02:51.373Z,19.82
2023-01-28T12:03:51.358Z,19.89
2023-01-28T12:04:51.461Z,19.79
2023-01-28T12:05:51.368Z,19.69
2023-01-28T12:06:51.369Z,19.70
2023-01-28T12:07:51.365Z,19.78
2023-01-28T12:08:51.370Z,19.82
2023-01-28T12:09:51.379Z,19.83
2023-01-28T12:10:51.392Z,19.67
2023-01-28T12:11:51.376Z,19.71
2023-01-28T12:12:51.394Z,19.73
2023-01-28T12:13:51.379Z,19.82
2023-01-28T12:14:51.380Z,19.87
2023-01-28T12:15:51.440Z,19.76
2023-01-28T12:16:51.390Z,19.77
2023-01-28T12:17:51.393Z,19.77
2023-01-28T12:18:51.393Z,19.80
2023-01-28T12:19:51.422Z,19.89
2023-01-28T12:20:51.404Z,19.83
2023-01-28T12:21:51.409Z,19.73
2023-01-28T12:22:51.411Z,19.83
2023-01-28T12:23:51.442Z,19.88
2023-01-28T12:24:51.427Z,19.89
2023-01-28T12:25:51.431Z,20.01
2023-01-28T12:26:51.434Z,19.84
2023-01-28T12:27:51.429Z,19.74
2023-01-28T12:28:51.436Z,19.81
2023-01-28T12:29:51.441Z,19.93
2023-01-28T12:30:51.493Z,20.01
2023-01-28T12:31:51.510Z,19.91
2023-01-28T12:32:51.471Z,19.83
2023-01-28T12:33:51.482Z,19.74
2023-01-28T12:34:51.477Z,19.86
2023-01-28T12:35:51.494Z,19.94
2023-01-28T12:36:51.508Z,20.08
2023-01-28T12:37:51.510Z,19.86
2023-01-28T12:38:51.521Z,19.78
2023-01-28T12:39:51.530Z,19.89
2023-01-28T12:40:51.542Z,19.99
2023-01-28T12:41:51.555Z,19.99
2023-01-28T12:42:51.564Z,19.93
2023-01-28T12:43:51.562Z,19.77
2023-01-28T12:44:51.569Z,19.80
2023-01-28T12:45:51.625Z,19.86
2023-01-28T12:46:51.585Z,20.01
2023-01-28T12:47:51.592Z,19.96
2023-01-28T12:48:51.602Z,19.80
2023-01-28T12:49:51.600Z,19.79
2023-01-28T12:50:51.612Z,19.76
2023-01-28T12:51:51.624Z,19.82
2023-01-28T12:52:51.637Z,19.96
2023-01-28T12:53:51.631Z,19.85
2023-01-28T12:54:51.654Z,19.71
2023-01-28T12:55:51.636Z,19.81
2023-01-28T12:56:51.648Z,19.84
2023-01-28T12:57:53.679Z,19.90
2023-01-28T12:58:51.668Z,19.99
2023-01-28T12:59:51.663Z,19.81
2023-01-28T13:00:51.663Z,19.79
2023-01-28T13:01:51.712Z,19.86
2023-01-28T13:02:51.702Z,19.97
2023-01-28T13:03:51.687Z,20.05
2023-01-28T13:04:51.694Z,19.94
2023-01-28T13:05:51.695Z,19.83
2023-01-28T13:06:51.703Z,19.86
2023-01-28T13:07:51.702Z,19.89
2023-01-28T13:08:51.728Z,20.03
2023-01-28T13:09:51.715Z,20.03
2023-01-28T13:10:51.747Z,19.89
2023-01-28T13:11:51.735Z,19.87
2023-01-28T13:12:51.747Z,19.96
2023-01-28T13:13:51.764Z,20.00
2023-01-28T13:14:54.039Z,20.09
2023-01-28T13:15:51.819Z,19.99
2023-01-28T13:16:51.852Z,19.87
2023-01-28T13:17:51.827Z,19.96
2023-01-28T13:18:51.850Z,20.00
2023-01-28T13:19:51.840Z,20.01
2023-01-28T13:20:53.565Z,20.05
2023-01-28T13:21:51.862Z,19.84
2023-01-28T13:22:51.883Z,19.94
2023-01-28T13:23:51.992Z,19.99
2023-01-28T13:24:52.406Z,20.03
2023-01-28T13:25:51.897Z,20.10
2023-01-28T13:26:51.916Z,19.97
2023-01-28T13:27:51.934Z,19.97
2023-01-28T13:28:51.940Z,20.03
2023-01-28T13:29:51.943Z,20.06
2023-01-28T13:30:51.995Z,20.07
2023-01-28T13:31:52.571Z,20.00
2023-01-28T13:32:52.004Z,19.94
2023-01-28T13:33:51.991Z,19.99
2023-01-28T13:34:51.989Z,20.03
2023-01-28T13:35:52.014Z,20.09
2023-01-28T13:36:51.994Z,20.12
2023-01-28T13:37:52.021Z,19.97
2023-01-28T13:38:52.027Z,19.94
2023-01-28T13:39:52.027Z,20.00
2023-01-28T13:40:52.026Z,20.13
2023-01-28T13:41:52.032Z,20.13
2023-01-28T13:42:52.059Z,20.10
2023-01-28T13:43:52.066Z,19.97
2023-01-28T13:44:52.089Z,19.97
2023-01-28T13:45:52.086Z,20.04
2023-01-28T13:46:52.061Z,20.10
2023-01-28T13:47:52.064Z,20.15
2023-01-28T13:48:52.084Z,20.03
2023-01-28T13:49:52.079Z,19.96
2023-01-28T13:50:52.077Z,20.01
2023-01-28T13:51:52.080Z,20.06
2023-01-28T13:52:52.108Z,20.13
2023-01-28T13:53:52.095Z,20.09
2023-01-28T13:54:52.121Z,19.98
2023-01-28T13:55:52.137Z,19.99
2023-01-28T13:56:52.111Z,20.10
2023-01-28T13:57:52.127Z,20.18
2023-01-28T13:58:52.126Z,20.19
2023-01-28T13:59:52.133Z,19.96
2023-01-28T14:00:52.151Z,19.95
2023-01-28T14:01:52.122Z,20.01
2023-01-28T14:02:52.131Z,20.17
2023-01-28T14:03:52.141Z,20.17
2023-01-28T14:04:52.160Z,20.12
2023-01-28T14:05:52.136Z,20.01
2023-01-28T14:06:52.228Z,20.03
2023-01-28T14:07:52.154Z,20.10
2023-01-28T14:08:52.146Z,20.19
2023-01-28T14:09:52.162Z,20.25
2023-01-28T14:10:52.150Z,20.08
2023-01-28T14:11:52.158Z,20.02
2023-01-28T14:12:52.159Z,20.04
2023-01-28T14:13:52.177Z,20.19
2023-01-28T14:14:52.176Z,20.22
2023-01-28T14:15:52.241Z,20.14
2023-01-28T14:16:52.208Z,20.05
2023-01-28T14:17:52.206Z,20.05
2023-01-28T14:18:52.198Z,20.10
2023-01-28T14:19:52.205Z,20.14
2023-01-28T14:49:52.332Z,20.04
2023-01-28T14:50:52.352Z,19.98
2023-01-28T14:51:52.335Z,20.07
2023-01-28T14:52:52.336Z,20.14
2023-01-28T14:53:52.343Z,20.17
2023-01-28T14:54:52.337Z,20.14
2023-01-28T14:55:52.339Z,20.07
2023-01-28T14:56:52.344Z,20.01
2023-01-28T14:57:52.360Z,20.05
2023-01-28T14:58:52.369Z,20.16
2023-01-28T14:59:52.364Z,20.19
2023-01-28T15:00:52.372Z,20.02
2023-01-28T15:01:52.395Z,19.95
2023-01-28T15:02:52.410Z,20.02
2023-01-28T15:03:52.388Z,20.11
2023-01-28T15:04:52.388Z,20.14
2023-01-28T15:05:52.385Z,20.14
2023-01-28T15:06:52.382Z,20.01
2023-01-28T15:07:52.394Z,19.98
2023-01-28T15:08:52.412Z,20.05
2023-01-28T15:09:52.396Z,20.17
2023-01-28T15:10:52.392Z,20.24
2023-01-28T15:11:52.397Z,20.08
2023-01-28T15:12:52.412Z,20.02
2023-01-28T15:13:52.405Z,20.04
2023-01-28T15:14:52.404Z,20.11
2023-01-28T15:15:52.418Z,20.21
2023-01-28T15:16:52.469Z,20.15
2023-01-28T15:17:52.432Z,20.05
2023-01-28T15:18:52.447Z,20.02
2023-01-28T15:19:52.446Z,20.07
2023-01-28T15:20:52.448Z,20.17
2023-01-28T15:21:52.468Z,20.24
2023-01-28T15:22:52.469Z,20.17
2023-01-28T15:23:52.626Z,20.03
2023-01-28T15:24:52.501Z,20.08
2023-01-28T15:25:52.501Z,20.17
2023-01-28T15:26:52.534Z,20.17
2023-01-28T15:27:52.527Z,20.16
2023-01-28T15:28:52.530Z,20.05
2023-01-28T15:29:52.549Z,20.08
2023-01-28T15:30:52.641Z,20.11
2023-01-28T15:31:52.634Z,20.19
2023-01-28T15:32:52.575Z,20.23
2023-01-28T15:33:52.593Z,20.16
2023-01-28T15:34:52.594Z,20.03
2023-01-28T15:35:52.600Z,20.08
2023-01-28T15:36:52.604Z,20.13
2023-01-28T15:37:52.619Z,20.18
2023-01-28T15:38:52.619Z,20.21
2023-01-28T15:39:52.635Z,20.08
2023-01-28T15:40:52.637Z,20.05
2023-01-28T15:41:52.652Z,20.13
2023-01-28T15:42:52.653Z,20.15
2023-01-28T15:43:52.659Z,20.15
2023-01-28T15:44:52.661Z,20.18
2023-01-28T15:45:52.675Z,20.05
2023-01-28T15:46:52.675Z,20.05
2023-01-28T15:47:52.768Z,20.15
2023-01-28T15:48:52.698Z,20.19
2023-01-28T15:49:52.708Z,20.19
2023-01-28T15:50:52.717Z,20.10
2023-01-28T15:51:52.728Z,20.06
2023-01-28T15:52:52.739Z,20.13
2023-01-28T15:53:52.756Z,20.16
2023-01-28T15:54:52.741Z,20.21
2023-01-28T15:55:52.766Z,20.16
2023-01-28T15:56:52.750Z,20.05
2023-01-28T15:57:52.771Z,20.09
2023-01-28T15:58:52.781Z,20.15
2023-01-28T15:59:52.796Z,20.22
2023-01-28T16:00:52.857Z,20.22
2023-01-28T16:01:52.795Z,20.18
2023-01-28T16:02:52.948Z,20.06
2023-01-28T16:03:52.815Z,20.15
2023-01-28T19:26:54.658Z,20.31
2023-01-28T19:30:54.746Z,20.32
2023-01-28T19:31:54.717Z,20.22
2023-01-28T19:32:54.669Z,20.21
2023-01-28T19:33:54.697Z,20.31
2023-01-28T19:34:54.681Z,20.40
2023-01-28T19:35:54.702Z,20.34
2023-01-28T19:36:54.711Z,20.32
2023-01-28T19:37:54.729Z,20.33
2023-01-28T19:38:54.747Z,20.28
2023-01-28T19:39:54.766Z,20.38
2023-01-28T19:40:54.782Z,20.37
2023-01-28T19:41:54.793Z,20.31
2023-01-28T19:42:54.826Z,20.22
2023-01-28T19:43:54.822Z,20.31
2023-01-28T19:44:54.842Z,20.34
2023-01-28T19:45:54.870Z,20.34
2023-01-28T19:46:54.895Z,20.34
2023-01-28T19:47:54.894Z,20.29
2023-01-28T19:48:54.905Z,20.25
2023-01-28T19:49:54.931Z,20.23
2023-01-28T19:50:54.936Z,20.35
2023-01-28T19:59:55.055Z,20.23
2023-01-28T20:00:55.069Z,20.27
2023-01-28T20:01:55.109Z,20.32
2023-01-28T20:02:55.099Z,20.40
2023-01-28T20:03:55.124Z,20.48
2023-01-28T20:05:00.997Z,20.32
2023-01-28T20:06:55.149Z,20.27
2023-01-28T20:07:55.160Z,20.37
2023-01-28T20:08:55.182Z,20.41
2023-01-28T20:09:55.178Z,20.34
2023-01-28T20:10:55.186Z,20.26
2023-01-28T20:11:55.204Z,20.25
2023-01-28T20:12:55.209Z,20.23
2023-01-28T20:13:55.252Z,20.32
2023-01-28T20:14:55.249Z,20.43
2023-01-28T20:15:55.276Z,20.29
2023-01-28T20:16:55.255Z,20.23
2023-01-28T20:17:55.272Z,20.28
2023-01-28T20:18:55.291Z,20.31
2023-01-28T20:19:55.296Z,20.37
2023-01-28T20:20:55.328Z,20.38
2023-01-28T20:21:55.333Z,20.25
2023-01-28T20:22:55.356Z,20.25
2023-01-28T20:23:55.395Z,20.21
2023-01-28T20:24:55.374Z,20.35
2023-01-28T20:32:55.483Z,20.23
2023-01-28T20:44:55.671Z,20.22
2023-01-28T20:45:55.679Z,20.23
2023-01-28T20:46:55.684Z,20.26
2023-01-28T20:47:55.720Z,20.35
2023-01-28T20:48:55.707Z,20.38
2023-01-28T20:49:55.715Z,20.29
2023-01-28T20:50:55.758Z,20.20
2023-01-28T20:51:55.749Z,20.14
2023-01-28T20:52:55.761Z,20.26
2023-01-28T20:53:55.780Z,20.31
2023-01-28T20:54:55.793Z,20.35
2023-01-28T20:55:55.817Z,20.21
2023-01-28T20:56:55.824Z,20.29
2023-01-28T20:57:55.862Z,20.32
2023-01-28T20:58:55.874Z,20.28
2023-01-28T20:59:55.863Z,20.35
2023-01-28T21:00:55.878Z,20.35
2023-01-28T21:01:55.960Z,20.26
2023-01-28T21:02:55.947Z,20.25
2023-01-28T21:03:55.956Z,20.29
2023-01-28T21:04:55.939Z,20.32
2023-01-28T21:05:55.953Z,20.35
2023-01-28T21:06:55.979Z,20.26
2023-01-28T21:07:55.990Z,20.17
2023-01-28T21:08:56.009Z,20.19
2023-01-28T21:09:56.022Z,20.28
2023-01-28T21:10:56.047Z,20.31
2023-01-28T21:11:56.050Z,20.41
2023-01-28T21:13:56.087Z,20.24
2023-01-28T21:14:56.112Z,20.20
2023-01-28T21:15:56.114Z,20.31
2023-01-28T21:16:56.154Z,20.28
2023-01-28T21:17:56.124Z,20.31
2023-01-28T21:18:56.139Z,20.19
2023-01-28T21:19:56.171Z,20.22
2023-01-28T21:20:56.168Z,20.22
2023-01-28T21:22:56.214Z,20.38
2023-01-28T21:23:56.249Z,20.25
2023-01-28T21:24:56.238Z,20.22
2023-01-28T21:25:56.250Z,20.14
2023-01-28T21:26:56.269Z,20.28
2023-01-28T21:27:56.282Z,20.35
2023-01-28T21:28:56.345Z,20.30
2023-01-28T21:29:56.319Z,20.21
2023-01-28T21:30:56.330Z,20.17
2023-01-28T21:31:56.393Z,20.19
2023-01-28T21:32:56.354Z,20.23
2023-01-28T21:33:56.366Z,20.34
2023-01-28T21:34:56.393Z,20.19
2023-01-28T21:35:56.426Z,20.10
2023-01-28T21:36:56.409Z,20.16
2023-01-28T21:37:56.419Z,20.21
2023-01-28T21:38:56.459Z,20.32
2023-01-28T21:39:56.456Z,20.31
2023-01-28T21:40:56.490Z,20.19
2023-01-28T21:41:56.476Z,20.16
2023-01-28T21:42:56.499Z,20.13
2023-01-28T21:43:56.511Z,20.22
2023-01-28T21:44:56.522Z,20.34
2023-01-28T21:45:56.546Z,20.21
2023-01-28T21:46:56.551Z,20.14
2023-01-28T21:47:56.597Z,20.11
2023-01-28T21:48:56.583Z,20.17
2023-01-28T21:49:56.593Z,20.29
2023-01-28T21:50:56.613Z,20.28
2023-01-28T21:51:56.626Z,20.19
2023-01-28T21:52:56.645Z,20.16
2023-01-28T21:53:56.647Z,20.13
2023-01-28T21:54:56.662Z,20.17
2023-01-28T21:55:56.663Z,20.20
2023-01-28T21:56:56.672Z,20.28
2023-01-28T21:57:56.688Z,20.20
2023-01-28T21:58:56.705Z,20.13
2023-01-28T21:59:56.707Z,20.16
2023-01-28T22:00:56.719Z,20.20
2023-01-28T22:01:56.748Z,20.30
2023-01-28T22:02:56.751Z,20.23
2023-01-28T22:03:56.758Z,20.04
2023-01-28T22:04:56.840Z,20.16
2023-01-28T22:05:56.788Z,20.11
2023-01-28T22:06:56.803Z,20.19
2023-01-28T22:07:56.797Z,20.23
2023-01-28T22:08:56.810Z,20.27
2023-01-28T22:09:56.836Z,20.08
2023-01-28T22:10:56.829Z,20.11
2023-01-28T22:11:56.843Z,20.13
2023-01-28T22:12:56.867Z,20.21
2023-01-28T22:13:56.863Z,20.23
2023-01-28T22:14:56.884Z,20.04
2023-01-28T22:41:57.171Z,20.20
2023-01-28T22:42:57.185Z,20.10
2023-01-28T22:43:57.204Z,20.04
2023-01-28T22:44:57.204Z,20.05
2023-01-28T22:45:57.225Z,20.16
2023-01-28T22:46:57.231Z,20.23
2023-01-28T22:48:57.243Z,20.01
2023-01-28T22:49:57.273Z,20.05
2023-01-28T22:50:57.272Z,20.08
2023-01-28T22:51:57.283Z,20.17
2023-01-28T22:52:57.304Z,20.17
2023-01-28T22:53:57.315Z,20.12
2023-01-28T22:54:57.325Z,20.04
2023-01-28T22:55:57.337Z,20.14
2023-01-28T22:56:57.353Z,20.11
2023-01-28T22:57:57.346Z,20.14
2023-01-28T23:00:00.285Z,19.99
2023-01-28T23:00:57.379Z,20.01
2023-01-28T23:01:57.403Z,20.11
2023-01-28T23:02:57.441Z,20.12
2023-01-28T23:03:57.404Z,20.20
2023-01-28T23:04:57.412Z,20.11
2023-01-28T23:05:57.433Z,19.98
2023-01-28T23:06:57.428Z,20.05
2023-01-28T23:07:57.434Z,20.11
2023-01-28T23:08:57.444Z,20.17
2023-01-28T23:09:57.454Z,20.16
2023-01-28T23:10:57.619Z,20.11
2023-01-28T23:11:57.472Z,19.99
2023-01-28T23:12:57.490Z,20.04
2023-01-28T23:13:57.487Z,20.12
2023-01-28T23:14:57.515Z,20.16
2023-01-28T23:15:57.516Z,20.24
2023-01-28T23:16:57.589Z,19.96
2023-01-28T23:17:57.529Z,19.96
2023-01-28T23:18:57.538Z,20.04
2023-01-28T23:19:57.558Z,20.11
2023-01-28T23:20:57.562Z,20.21
2023-01-28T23:21:57.573Z,20.11
2023-01-28T23:22:57.578Z,19.96
2023-01-28T23:23:57.613Z,20.02
2023-01-28T23:24:57.593Z,20.01
2023-01-28T23:25:57.616Z,20.14
2023-01-28T23:26:57.625Z,20.10
2023-01-28T23:27:57.636Z,19.98
2023-01-28T23:28:57.628Z,19.93
2023-01-28T23:29:57.635Z,19.93
2023-01-28T23:30:57.717Z,20.07
2023-01-28T23:31:57.863Z,20.14
2023-01-28T23:32:57.659Z,20.14
2023-01-28T23:33:57.656Z,19.98
2023-01-28T23:34:57.666Z,19.99
2023-01-28T23:35:57.673Z,20.04
2023-01-28T23:36:57.683Z,20.07
2023-01-28T23:37:57.688Z,20.18
2023-01-28T23:38:57.690Z,20.01
2023-01-28T23:39:57.712Z,19.92
2023-01-28T23:40:57.706Z,19.96
2023-01-28T23:41:57.724Z,20.07
2023-01-28T23:42:57.725Z,20.11
2023-01-28T23:43:57.739Z,20.12
2023-01-28T23:44:57.748Z,20.02
2023-01-28T23:45:57.763Z,19.95
2023-01-28T23:46:57.800Z,20.02
2023-01-28T23:47:57.841Z,20.07
2023-01-28T23:48:57.773Z,20.11
2023-01-28T23:49:57.792Z,20.11
2023-01-28T23:50:57.805Z,19.95
2023-01-28T23:51:57.807Z,20.01
2023-01-28T23:52:57.819Z,20.07
2023-01-28T23:53:57.830Z,20.10
2023-01-28T23:54:57.847Z,20.11
2023-01-28T23:55:57.859Z,20.00
2023-01-28T23:56:57.866Z,19.86
2023-01-28T23:57:57.874Z,19.93
2023-01-28T23:58:57.889Z,20.02
2023-01-28T23:59:57.914Z,20.11
